createdAt,value
2023-04-24T00:01:03.813Z,99745.19
2023-04-24T00:03:31.095Z,99760.19
2023-04-24T00:05:57.915Z,99758.44
2023-04-24T00:08:24.873Z,99757.53
2023-04-24T00:10:53.601Z,99765.50
2023-04-24T00:13:20.324Z,99719.59
2023-04-24T00:15:48.329Z,99750.50
2023-04-24T00:18:14.918Z,99685.19
2023-04-24T00:20:41.752Z,99740.78
2023-04-24T00:23:08.372Z,99753.16
2023-04-24T00:25:34.984Z,99764.63
2023-04-24T00:28:01.928Z,99726.69
2023-04-24T00:30:29.473Z,99767.28
2023-04-24T00:32:56.080Z,99730.22
2023-04-24T00:35:24.520Z,99739.91
2023-04-24T00:37:52.352Z,99754.03
2023-04-24T00:40:19.134Z,99755.81
2023-04-24T00:42:46.326Z,99776.09
2023-04-24T00:45:13.147Z,99764.63
2023-04-24T00:47:40.101Z,99754.03
2023-04-24T00:50:07.729Z,99758.44
2023-04-24T00:52:35.182Z,99761.09
2023-04-24T00:55:01.847Z,99765.50
2023-04-24T00:57:29.036Z,99747.84
2023-04-24T00:59:55.721Z,99786.72
2023-04-24T01:02:24.212Z,99739.91
2023-04-24T01:04:52.196Z,99729.31
2023-04-24T01:07:21.971Z,99727.56
2023-04-24T01:09:50.015Z,99763.78
2023-04-24T01:12:16.647Z,99763.75
2023-04-24T01:14:45.663Z,99699.31
2023-04-24T01:17:12.745Z,99673.75
2023-04-24T01:19:39.591Z,99698.44
2023-04-24T01:22:12.785Z,99761.13
2023-04-24T01:24:43.973Z,99744.38
2023-04-24T01:27:13.201Z,99756.75
2023-04-24T01:29:40.533Z,99770.00
2023-04-24T01:32:08.313Z,99727.66
2023-04-24T01:34:35.491Z,99694.06
2023-04-24T01:37:02.335Z,99728.56
2023-04-24T01:39:29.660Z,99748.88
2023-04-24T01:41:57.252Z,99683.50
2023-04-24T01:44:24.698Z,99754.19
2023-04-24T01:46:51.861Z,99733.88
2023-04-24T01:49:18.747Z,99751.56
2023-04-24T01:51:46.036Z,99779.84
2023-04-24T01:54:13.175Z,99762.13
2023-04-24T01:56:44.225Z,99771.00
2023-04-24T01:59:14.132Z,99573.16
2023-04-24T02:01:40.908Z,99781.56
2023-04-24T02:04:08.676Z,99750.66
2023-04-24T02:06:36.286Z,99719.72
2023-04-24T02:09:04.329Z,99749.75
2023-04-24T02:11:31.169Z,99781.56
2023-04-24T02:13:59.202Z,99778.94
2023-04-24T02:16:27.127Z,99778.03
2023-04-24T02:18:53.806Z,99737.41
2023-04-24T02:21:20.459Z,99766.53
2023-04-24T02:23:47.121Z,99718.84
2023-04-24T02:26:14.013Z,99771.84
2023-04-24T02:28:40.703Z,99697.63
2023-04-24T02:31:07.543Z,99731.19
2023-04-24T02:33:34.299Z,99750.63
2023-04-24T02:36:02.892Z,99770.09
2023-04-24T02:38:30.401Z,99638.44
2023-04-24T02:40:57.003Z,99773.63
2023-04-24T02:43:23.555Z,99755.06
2023-04-24T02:45:50.658Z,99735.59
2023-04-24T02:48:18.049Z,99780.69
2023-04-24T02:50:45.087Z,99758.59
2023-04-24T02:53:11.639Z,99765.66
2023-04-24T02:55:38.279Z,99753.28
2023-04-24T02:58:05.056Z,99765.66
2023-04-24T03:00:31.608Z,99685.25
2023-04-24T03:02:58.431Z,99717.94
2023-04-24T03:05:25.396Z,99747.94
2023-04-24T03:07:53.609Z,99681.69
2023-04-24T03:10:23.497Z,99789.50
2023-04-24T03:12:50.349Z,99776.25
2023-04-24T03:15:18.883Z,99786.84
2023-04-24T03:17:45.571Z,99749.72
2023-04-24T03:20:13.138Z,99719.66
2023-04-24T03:22:39.946Z,99749.72
2023-04-24T03:25:10.280Z,99770.94
2023-04-24T03:27:37.361Z,99756.78
2023-04-24T03:30:32.503Z,99789.50
2023-04-24T03:33:01.071Z,99766.50
2023-04-24T03:35:31.197Z,99747.03
2023-04-24T03:38:01.619Z,99787.72
2023-04-24T03:40:46.922Z,99788.59
2023-04-24T03:43:45.619Z,99789.50
2023-04-24T03:46:13.107Z,99709.06
2023-04-24T03:48:44.758Z,99761.22
2023-04-24T03:51:11.886Z,99774.47
2023-04-24T03:53:42.754Z,99770.94
2023-04-24T03:56:11.277Z,99773.59
2023-04-24T03:58:38.353Z,99774.47
2023-04-24T04:01:06.595Z,99766.50
2023-04-24T04:03:55.340Z,99767.41
2023-04-24T04:06:29.499Z,99767.38
2023-04-24T04:08:58.171Z,99771.81
2023-04-24T04:11:25.263Z,99759.44
2023-04-24T04:13:52.064Z,99763.00
2023-04-24T04:16:21.381Z,99800.97
2023-04-24T04:18:50.794Z,99773.59
2023-04-24T04:21:17.754Z,99761.19
2023-04-24T04:23:45.037Z,99770.91
2023-04-24T04:26:22.073Z,99796.56
2023-04-24T04:29:09.303Z,99775.34
2023-04-24T04:31:41.993Z,99775.34
2023-04-24T04:34:13.612Z,99796.56
2023-04-24T04:36:43.957Z,99777.13
2023-04-24T04:39:23.844Z,99756.78
2023-04-24T04:42:01.435Z,99781.53
2023-04-24T04:44:37.154Z,99761.22
2023-04-24T04:47:09.758Z,99787.72
2023-04-24T04:49:39.638Z,99778.88
2023-04-24T04:52:10.968Z,99787.72
2023-04-24T04:54:38.115Z,99783.28
2023-04-24T04:57:04.707Z,99771.81
2023-04-24T04:59:36.098Z,99676.38
2023-04-24T05:02:07.275Z,99755.00
2023-04-24T05:04:34.270Z,99790.34
2023-04-24T05:07:01.190Z,99792.09
2023-04-24T05:09:30.602Z,99771.75
2023-04-24T05:12:03.300Z,99773.53
2023-04-24T05:14:34.051Z,99785.91
2023-04-24T05:17:01.186Z,99765.56
2023-04-24T05:19:27.941Z,99765.56
2023-04-24T05:21:54.710Z,99788.53
2023-04-24T05:24:21.346Z,99801.78
2023-04-24T05:27:26.409Z,99781.44
2023-04-24T05:29:53.238Z,99769.94
2023-04-24T05:32:19.887Z,99790.28
2023-04-24T05:34:46.557Z,99769.94
2023-04-24T05:37:14.462Z,99800.88
2023-04-24T05:39:42.823Z,99797.34
2023-04-24T05:42:09.642Z,99825.63
2023-04-24T05:44:36.191Z,99816.75
2023-04-24T05:47:03.032Z,99800.88
2023-04-24T05:49:29.688Z,99811.50
2023-04-24T05:51:58.462Z,99792.06
2023-04-24T05:54:25.067Z,99804.41
2023-04-24T05:56:52.461Z,99798.25
2023-04-24T05:59:29.462Z,99805.31
2023-04-24T06:01:57.894Z,99815.03
2023-04-24T06:04:25.938Z,99821.22
2023-04-24T06:06:56.734Z,99829.16
2023-04-24T06:09:23.835Z,99826.53
2023-04-24T06:11:51.454Z,99838.03
2023-04-24T06:14:18.293Z,99826.53
2023-04-24T06:17:03.557Z,99853.94
2023-04-24T06:19:36.155Z,99849.50
2023-04-24T06:22:03.659Z,99864.53
2023-04-24T06:24:30.371Z,99860.09
2023-04-24T06:26:59.935Z,99857.41
2023-04-24T06:29:26.603Z,99852.13
2023-04-24T06:31:53.387Z,99866.28
2023-04-24T06:34:20.161Z,99777.75
2023-04-24T06:36:47.973Z,99846.78
2023-04-24T06:39:14.711Z,99872.38
2023-04-24T06:41:41.342Z,99859.13
2023-04-24T06:44:11.419Z,99874.13
2023-04-24T06:46:39.780Z,99873.25
2023-04-24T06:49:07.772Z,99820.06
2023-04-24T06:51:34.451Z,99884.69
2023-04-24T06:54:01.255Z,99894.41
2023-04-24T06:56:29.781Z,99921.88
2023-04-24T06:58:56.389Z,99908.63
2023-04-24T07:01:23.033Z,99875.94
2023-04-24T07:03:49.798Z,99886.56
2023-04-24T07:06:17.700Z,99937.91
2023-04-24T07:08:44.628Z,99905.13
2023-04-24T07:11:11.266Z,99936.97
2023-04-24T07:13:42.616Z,99952.88
2023-04-24T07:16:09.848Z,99979.34
2023-04-24T07:18:37.495Z,99974.91
2023-04-24T07:21:04.154Z,99952.72
2023-04-24T07:23:31.707Z,99942.09
2023-04-24T07:25:58.566Z,99866.81
2023-04-24T07:28:25.723Z,99987.28
2023-04-24T07:30:54.829Z,99959.81
2023-04-24T07:33:21.560Z,99958.00
2023-04-24T07:35:50.472Z,99974.84
2023-04-24T07:38:17.155Z,99978.41
2023-04-24T07:40:43.807Z,99958.91
2023-04-24T07:43:10.753Z,99996.06
2023-04-24T07:45:38.609Z,99950.91
2023-04-24T07:48:05.732Z,100010.16
2023-04-24T07:50:32.471Z,99949.03
2023-04-24T07:52:59.102Z,100002.19
2023-04-24T07:55:28.364Z,100025.97
2023-04-24T07:57:55.092Z,100045.47
2023-04-24T08:00:22.788Z,99987.78
2023-04-24T08:02:49.563Z,100010.78
2023-04-24T08:05:16.467Z,100047.94
2023-04-24T08:07:43.735Z,100094.81
2023-04-24T08:10:14.329Z,100107.22
2023-04-24T08:12:41.320Z,100026.47
2023-04-24T08:15:08.677Z,100115.94
2023-04-24T08:17:36.405Z,100046.69
2023-04-24T08:20:06.012Z,100098.94
2023-04-24T08:22:32.744Z,100056.28
2023-04-24T08:25:01.058Z,100141.47
2023-04-24T08:27:27.869Z,100086.41
2023-04-24T08:29:55.150Z,100136.09
2023-04-24T08:32:21.789Z,100143.13
2023-04-24T08:34:49.661Z,100142.09
2023-04-24T08:37:17.606Z,100159.84
2023-04-24T08:39:44.428Z,100138.53
2023-04-24T08:42:12.548Z,100181.09
2023-04-24T08:44:39.489Z,100198.00
2023-04-24T08:47:06.268Z,100162.41
2023-04-24T08:49:34.464Z,100194.47
2023-04-24T08:52:02.540Z,100221.06
2023-04-24T08:54:29.870Z,100127.03
2023-04-24T08:57:04.472Z,100206.84
2023-04-24T08:59:32.302Z,100177.63
2023-04-24T09:01:59.053Z,100014.09
2023-04-24T09:04:26.493Z,100229.03
2023-04-24T09:06:57.259Z,100244.91
2023-04-24T09:09:26.698Z,100155.09
2023-04-24T09:11:56.321Z,100179.91
2023-04-24T09:14:24.597Z,100217.22
2023-04-24T09:16:51.849Z,100260.69
2023-04-24T09:19:18.893Z,100261.53
2023-04-24T09:21:48.702Z,100263.34
2023-04-24T09:24:18.755Z,100252.69
2023-04-24T09:26:46.082Z,100272.22
2023-04-24T09:29:17.829Z,100283.72
2023-04-24T09:31:46.185Z,100301.72
2023-04-24T09:34:13.039Z,100203.47
2023-04-24T09:36:42.518Z,100285.31
2023-04-24T09:39:17.531Z,100270.50
2023-04-24T09:42:01.915Z,100294.47
2023-04-24T09:44:29.449Z,100272.00
2023-04-24T09:46:57.230Z,100328.00
2023-04-24T09:49:26.019Z,100245.41
2023-04-24T09:51:53.434Z,100314.53
2023-04-24T09:54:23.502Z,100355.44
2023-04-24T09:56:51.635Z,100334.16
2023-04-24T09:59:20.328Z,100358.25
2023-04-24T10:01:49.677Z,100340.38
2023-04-24T10:04:21.601Z,100360.81
2023-04-24T10:06:50.035Z,100355.75
2023-04-24T10:09:22.311Z,100315.13
2023-04-24T10:11:51.146Z,100342.75
2023-04-24T10:14:21.598Z,100346.25
2023-04-24T10:16:49.011Z,100371.31
2023-04-24T10:19:16.621Z,100342.94
2023-04-24T10:21:47.382Z,100361.56
2023-04-24T10:24:18.973Z,100309.19
2023-04-24T10:26:46.973Z,100377.34
2023-04-24T10:29:16.445Z,100358.75
2023-04-24T10:31:46.424Z,100393.47
2023-04-24T10:34:15.252Z,100401.47
2023-04-24T10:36:47.015Z,100408.56
2023-04-24T10:39:16.171Z,100392.56
2023-04-24T10:41:42.893Z,100379.06
2023-04-24T10:44:15.909Z,100384.34
2023-04-24T10:46:49.246Z,100424.41
2023-04-24T10:49:15.963Z,100404.00
2023-04-24T10:51:54.176Z,100399.66
2023-04-24T10:54:25.873Z,100412.13
2023-04-24T10:56:53.257Z,100372.06
2023-04-24T10:59:27.992Z,100437.75
2023-04-24T11:01:58.417Z,100358.47
2023-04-24T11:04:32.732Z,100405.56
2023-04-24T11:06:59.732Z,100450.84
2023-04-24T11:09:32.737Z,100450.94
2023-04-24T11:12:11.317Z,100465.09
2023-04-24T11:14:56.357Z,100455.47
2023-04-24T11:17:34.274Z,100452.94
2023-04-24T11:20:25.960Z,100465.38
2023-04-24T11:22:56.066Z,100460.06
2023-04-24T11:25:24.347Z,100419.22
2023-04-24T11:27:51.530Z,100388.16
2023-04-24T11:30:20.445Z,100395.28
2023-04-24T11:32:52.102Z,100429.00
2023-04-24T11:35:22.088Z,100423.69
2023-04-24T11:40:26.889Z,100480.47
2023-04-24T11:42:56.425Z,100487.50
2023-04-24T11:45:26.068Z,100424.25
2023-04-24T11:47:52.938Z,100480.09
2023-04-24T11:50:22.545Z,100488.06
2023-04-24T11:52:50.590Z,100478.13
2023-04-24T11:55:17.178Z,100500.25
2023-04-24T11:57:45.622Z,100500.84
2023-04-24T12:00:26.934Z,100518.59
2023-04-24T12:03:07.476Z,100527.25
2023-04-24T12:05:35.860Z,100420.31
2023-04-24T12:08:02.794Z,100536.97
2023-04-24T12:10:31.625Z,100494.47
2023-04-24T12:13:00.933Z,100531.09
2023-04-24T12:15:28.433Z,100503.78
2023-04-24T12:17:56.356Z,100521.75
2023-04-24T12:20:29.789Z,100520.09
2023-04-24T12:22:58.851Z,100477.66
2023-04-24T12:25:33.236Z,100534.59
2023-04-24T12:28:06.279Z,100544.41
2023-04-24T12:30:40.737Z,100540.88
2023-04-24T12:33:07.761Z,100536.44
2023-04-24T12:35:35.076Z,100532.91
2023-04-24T12:38:15.631Z,100541.78
2023-04-24T12:40:43.692Z,100522.19
2023-04-24T12:43:20.965Z,100525.59
2023-04-24T12:45:49.039Z,100569.03
2023-04-24T12:48:15.905Z,100559.00
2023-04-24T12:50:46.118Z,100548.16
2023-04-24T12:53:13.423Z,100540.84
2023-04-24T12:55:40.146Z,100538.66
2023-04-24T12:58:06.893Z,100524.16
2023-04-24T13:00:34.209Z,100579.91
2023-04-24T13:03:02.525Z,100545.91
2023-04-24T13:05:29.592Z,100567.50
2023-04-24T13:07:56.361Z,100362.38
2023-04-24T13:10:23.228Z,100539.28
2023-04-24T13:12:50.520Z,100572.00
2023-04-24T13:15:17.170Z,100566.97
2023-04-24T13:17:43.964Z,100577.38
2023-04-24T13:20:10.962Z,100566.13
2023-04-24T13:22:38.186Z,100583.03
2023-04-24T13:25:07.236Z,100569.13
2023-04-24T13:27:34.455Z,100563.00
2023-04-24T13:30:01.462Z,100564.94
2023-04-24T13:32:29.755Z,100562.22
2023-04-24T13:34:57.845Z,100521.91
2023-04-24T13:37:24.474Z,100569.81
2023-04-24T13:39:52.330Z,100577.34
2023-04-24T13:42:19.841Z,100587.16
2023-04-24T13:44:46.483Z,100584.41
2023-04-24T13:47:13.171Z,100544.31
2023-04-24T13:49:40.850Z,100559.25
2023-04-24T13:52:08.530Z,100574.75
2023-04-24T13:54:35.177Z,100566.72
2023-04-24T13:57:03.798Z,100529.63
2023-04-24T13:59:30.671Z,100575.22
2023-04-24T14:01:57.311Z,100528.41
2023-04-24T14:04:24.051Z,100571.09
2023-04-24T14:06:51.433Z,100585.34
2023-04-24T14:09:18.067Z,100513.25
2023-04-24T14:11:44.822Z,100612.69
2023-04-24T14:14:11.549Z,100622.38
2023-04-24T14:16:38.197Z,100613.41
2023-04-24T14:19:06.408Z,100631.88
2023-04-24T14:21:33.635Z,100634.09
2023-04-24T14:24:00.557Z,100651.44
2023-04-24T14:26:28.243Z,100597.66
2023-04-24T14:29:04.104Z,100613.34
2023-04-24T14:31:40.824Z,100533.91
2023-04-24T14:34:07.477Z,100619.38
2023-04-24T14:36:34.086Z,100595.34
2023-04-24T14:39:00.660Z,100634.09
2023-04-24T14:41:27.295Z,100595.19
2023-04-24T14:43:53.873Z,100623.84
2023-04-24T14:46:21.066Z,100581.47
2023-04-24T14:48:48.021Z,100634.06
2023-04-24T14:51:15.606Z,100631.38
2023-04-24T14:53:42.301Z,100555.06
2023-04-24T14:56:09.037Z,100638.25
2023-04-24T14:58:35.933Z,100614.44
2023-04-24T15:01:05.504Z,100622.34
2023-04-24T15:03:33.208Z,100621.50
2023-04-24T15:06:00.572Z,100622.34
2023-04-24T15:08:27.478Z,100664.88
2023-04-24T15:10:54.741Z,100668.75
2023-04-24T15:13:21.608Z,100645.75
2023-04-24T15:15:51.523Z,100614.69
2023-04-24T15:18:18.335Z,100670.53
2023-04-24T15:20:45.384Z,100604.47
2023-04-24T15:23:12.642Z,100651.00
2023-04-24T15:25:39.627Z,100574.47
2023-04-24T15:28:06.993Z,100651.13
2023-04-24T15:30:33.896Z,100656.66
2023-04-24T15:33:02.116Z,100639.00
2023-04-24T15:35:31.679Z,100675.16
2023-04-24T15:37:58.621Z,100671.16
2023-04-24T15:40:25.521Z,100669.59
2023-04-24T15:42:52.302Z,100629.25
2023-04-24T15:45:20.495Z,100664.09
2023-04-24T15:47:47.675Z,100629.59
2023-04-24T15:50:16.936Z,100652.72
2023-04-24T15:52:44.204Z,100641.84
2023-04-24T15:55:11.218Z,100540.00
2023-04-24T15:57:37.993Z,100630.53
2023-04-24T16:00:10.862Z,100658.91
2023-04-24T16:02:41.213Z,100667.88
2023-04-24T16:05:08.746Z,100647.53
2023-04-24T16:07:36.100Z,100610.91
2023-04-24T16:10:02.809Z,100626.66
2023-04-24T16:12:29.698Z,100638.81
2023-04-24T16:14:56.521Z,100683.34
2023-04-24T16:17:23.786Z,100640.50
2023-04-24T16:19:50.438Z,100662.28
2023-04-24T16:22:17.155Z,100657.31
2023-04-24T16:24:44.620Z,100667.59
2023-04-24T16:27:11.275Z,100684.13
2023-04-24T16:29:37.910Z,100653.59
2023-04-24T16:32:04.658Z,100639.94
2023-04-24T16:34:31.380Z,100578.34
2023-04-24T16:36:58.304Z,100475.66
2023-04-24T16:39:25.906Z,100662.47
2023-04-24T16:41:59.603Z,100644.69
2023-04-24T16:44:26.936Z,100651.78
2023-04-24T16:47:19.502Z,100691.94
2023-04-24T16:49:46.337Z,100675.84
2023-04-24T16:52:15.107Z,100649.13
2023-04-24T16:54:42.881Z,100655.41
2023-04-24T16:57:11.962Z,100662.66
2023-04-24T16:59:38.810Z,100679.50
2023-04-24T17:02:09.240Z,100649.31
2023-04-24T17:04:36.108Z,100689.09
2023-04-24T17:07:03.235Z,100705.69
2023-04-24T17:09:30.686Z,100693.75
2023-04-24T17:11:57.528Z,100711.75
2023-04-24T17:14:26.357Z,100681.59
2023-04-24T17:16:53.517Z,100688.75
2023-04-24T17:19:21.369Z,100605.38
2023-04-24T17:21:48.178Z,100693.38
2023-04-24T17:24:14.927Z,100679.13
2023-04-24T17:26:41.778Z,100681.72
2023-04-24T17:29:08.607Z,100678.22
2023-04-24T17:31:35.490Z,100674.63
2023-04-24T17:34:02.606Z,100689.47
2023-04-24T17:36:29.749Z,100710.09
2023-04-24T17:38:56.603Z,100666.81
2023-04-24T17:41:23.434Z,100696.22
2023-04-24T17:43:50.282Z,100713.03
2023-04-24T17:46:17.208Z,100700.28
2023-04-24T17:48:44.071Z,100716.66
2023-04-24T17:51:10.945Z,100707.63
2023-04-24T17:53:37.819Z,100686.63
2023-04-24T17:56:04.737Z,100727.44
2023-04-24T17:58:31.657Z,100726.34
2023-04-24T18:00:58.515Z,100699.25
2023-04-24T18:03:25.562Z,100695.47
2023-04-24T18:05:52.498Z,100719.44
2023-04-24T18:08:19.560Z,100709.59
2023-04-24T18:10:46.484Z,100737.13
2023-04-24T18:13:13.333Z,100702.00
2023-04-24T18:15:43.683Z,100741.97
2023-04-24T18:18:11.337Z,100742.50
2023-04-24T18:20:38.587Z,100658.53
2023-04-24T18:23:05.836Z,100710.63
2023-04-24T18:25:32.868Z,100731.13
2023-04-24T18:27:59.593Z,100743.44
2023-04-24T18:30:26.965Z,100702.06
2023-04-24T18:32:53.950Z,100730.25
2023-04-24T18:35:21.538Z,100732.84
2023-04-24T18:37:48.349Z,100757.72
2023-04-24T18:40:15.452Z,100721.03
2023-04-24T18:42:42.359Z,100724.41
2023-04-24T18:45:10.923Z,100758.00
2023-04-24T18:47:39.303Z,100718.34
2023-04-24T18:50:14.543Z,100776.28
2023-04-24T18:52:41.247Z,100760.84
2023-04-24T18:55:09.665Z,100735.97
2023-04-24T18:57:36.351Z,100766.06
2023-04-24T19:00:04.020Z,100753.41
2023-04-24T19:02:30.964Z,100734.50
2023-04-24T19:04:57.720Z,100742.03
2023-04-24T19:07:24.370Z,100776.94
2023-04-24T19:09:50.974Z,100789.41
2023-04-24T19:12:17.636Z,100758.00
2023-04-24T19:14:46.064Z,100787.56
2023-04-24T19:17:12.749Z,100681.13
2023-04-24T19:19:39.463Z,100778.34
2023-04-24T19:22:07.554Z,100812.75
2023-04-24T19:24:34.458Z,100782.50
2023-04-24T19:27:01.605Z,100799.41
2023-04-24T19:29:28.480Z,100770.66
2023-04-24T19:31:55.573Z,100785.94
2023-04-24T19:34:22.253Z,100800.13
2023-04-24T19:36:48.851Z,100742.06
2023-04-24T19:39:16.061Z,100717.63
2023-04-24T19:41:42.632Z,100759.53
2023-04-24T19:44:10.594Z,100792.28
2023-04-24T19:46:37.612Z,100820.06
2023-04-24T19:49:04.392Z,100717.19
2023-04-24T19:51:32.275Z,100807.41
2023-04-24T19:53:59.539Z,100795.94
2023-04-24T19:56:26.116Z,100797.56
2023-04-24T19:58:52.703Z,100807.09
2023-04-24T20:01:19.354Z,100717.75
2023-04-24T20:03:46.183Z,100799.00
2023-04-24T20:06:12.808Z,100811.03
2023-04-24T20:08:39.562Z,100805.31
2023-04-24T20:11:06.400Z,100767.03
2023-04-24T20:13:33.146Z,100789.38
2023-04-24T20:16:00.270Z,100769.81
2023-04-24T20:18:27.134Z,100810.75
2023-04-24T20:20:56.818Z,100827.63
2023-04-24T20:23:23.482Z,100784.88
2023-04-24T20:25:50.320Z,100804.47
2023-04-24T20:28:18.183Z,100819.50
2023-04-24T20:30:45.972Z,100763.84
2023-04-24T20:33:12.627Z,100810.31
2023-04-24T20:35:39.452Z,100820.13
2023-04-24T20:38:06.798Z,100785.50
2023-04-24T20:40:35.498Z,100812.16
2023-04-24T20:43:04.307Z,100746.25
2023-04-24T20:45:31.307Z,100756.84
2023-04-24T20:47:58.043Z,100808.81
2023-04-24T20:50:25.324Z,100653.19
2023-04-24T20:52:52.080Z,100792.88
2023-04-24T20:55:18.870Z,100799.03
2023-04-24T20:57:45.622Z,100817.44
2023-04-24T21:00:13.621Z,100790.72
2023-04-24T21:02:40.961Z,100651.03
2023-04-24T21:05:08.314Z,100829.91
2023-04-24T21:07:35.156Z,100818.94
2023-04-24T21:10:02.011Z,100836.88
2023-04-24T21:12:28.733Z,100786.75
2023-04-24T21:14:55.506Z,100819.53
2023-04-24T21:17:22.452Z,100809.53
2023-04-24T21:19:49.267Z,100792.50
2023-04-24T21:22:16.147Z,100831.53
2023-04-24T21:24:42.952Z,100817.09
2023-04-24T21:27:09.790Z,100814.25
2023-04-24T21:29:37.500Z,100835.53
2023-04-24T21:32:04.883Z,100819.44
2023-04-24T21:34:58.893Z,100823.16
2023-04-24T21:37:28.544Z,100801.72
2023-04-24T21:39:55.264Z,100808.56
2023-04-24T21:42:21.945Z,100804.03
2023-04-24T21:44:48.696Z,100795.50
2023-04-24T21:47:15.425Z,100808.88
2023-04-24T21:49:42.478Z,100776.41
2023-04-24T21:52:09.125Z,100736.25
2023-04-24T21:54:35.717Z,100803.72
2023-04-24T21:57:02.980Z,100801.22
2023-04-24T21:59:30.176Z,100802.09
2023-04-24T22:01:57.015Z,100796.75
2023-04-24T22:04:23.819Z,100808.94
2023-04-24T22:06:53.190Z,100814.22
2023-04-24T22:09:19.979Z,100789.09
2023-04-24T22:11:46.642Z,100774.31
2023-04-24T22:14:14.787Z,100810.69
2023-04-24T22:16:41.873Z,100829.53
2023-04-24T22:19:08.960Z,100800.75
2023-04-24T22:21:35.821Z,100798.81
2023-04-24T22:24:02.553Z,100779.88
2023-04-24T22:26:29.149Z,100823.97
2023-04-24T22:28:55.740Z,100750.16
2023-04-24T22:31:23.104Z,100822.91
2023-04-24T22:33:51.642Z,100798.94
2023-04-24T22:36:18.779Z,100807.09
2023-04-24T22:38:45.359Z,100805.41
2023-04-24T22:41:12.405Z,100809.72
2023-04-24T22:43:39.280Z,100807.91
2023-04-24T22:46:06.088Z,100807.66
2023-04-24T22:48:34.592Z,100821.72
2023-04-24T22:51:01.278Z,100788.78
2023-04-24T22:53:28.818Z,100797.78
2023-04-24T22:55:58.636Z,100655.94
2023-04-24T22:58:25.574Z,100781.72
2023-04-24T23:00:52.607Z,100815.19
2023-04-24T23:03:19.344Z,100816.53
2023-04-24T23:05:46.100Z,100829.78
2023-04-24T23:08:12.756Z,100793.19
2023-04-24T23:10:39.620Z,100788.38
2023-04-24T23:13:06.386Z,100791.88
2023-04-24T23:15:33.099Z,100766.41
2023-04-24T23:17:59.762Z,100706.44
2023-04-24T23:20:26.704Z,100799.25
2023-04-24T23:22:53.454Z,100792.66
2023-04-24T23:25:20.236Z,100684.69
2023-04-24T23:27:47.638Z,100816.06
2023-04-24T23:30:14.302Z,100811.69
2023-04-24T23:32:40.863Z,100812.41
2023-04-24T23:35:08.862Z,100830.53
2023-04-24T23:37:36.276Z,100849.88
2023-04-24T23:40:03.030Z,100821.78
2023-04-24T23:42:29.638Z,100825.81
2023-04-24T23:44:56.275Z,100848.78
2023-04-24T23:47:22.930Z,100841.13
2023-04-24T23:49:49.571Z,100848.47
2023-04-24T23:52:16.274Z,100827.94
2023-04-24T23:54:42.918Z,100845.25
2023-04-24T23:57:09.663Z,100849.00
2023-04-24T23:59:37.247Z,100846.59
